sensor_id;sensor_type;location;lat;lon;timestamp;temperature;humidity
1381;DHT22;684;48.342;10.096;2024-01-16T00:00:19;0.20;10.20
1381;DHT22;684;48.342;10.096;2024-01-16T00:02:48;0.20;10.30
1381;DHT22;684;48.342;10.096;2024-01-16T00:05:14;0.20;10.30
1381;DHT22;684;48.342;10.096;2024-01-16T00:07:41;0.20;10.20
1381;DHT22;684;48.342;10.096;2024-01-16T00:10:08;0.20;10.20
1381;DHT22;684;48.342;10.096;2024-01-16T00:12:35;0.20;10.30
1381;DHT22;684;48.342;10.096;2024-01-16T00:15:03;0.20;10.40
1381;DHT22;684;48.342;10.096;2024-01-16T00:17:31;0.10;10.50
1381;DHT22;684;48.342;10.096;2024-01-16T00:19:59;0.10;10.50
1381;DHT22;684;48.342;10.096;2024-01-16T00:22:26;0.10;10.60
1381;DHT22;684;48.342;10.096;2024-01-16T00:24:53;0.00;10.40
1381;DHT22;684;48.342;10.096;2024-01-16T00:27:20;0.00;10.50
1381;DHT22;684;48.342;10.096;2024-01-16T00:29:47;0.00;10.50
1381;DHT22;684;48.342;10.096;2024-01-16T00:32:14;-0.10;10.50
1381;DHT22;684;48.342;10.096;2024-01-16T00:34:42;-0.10;10.50
1381;DHT22;684;48.342;10.096;2024-01-16T00:37:10;-0.10;10.60
1381;DHT22;684;48.342;10.096;2024-01-16T00:39:37;-0.20;10.50
1381;DHT22;684;48.342;10.096;2024-01-16T00:42:04;-0.20;10.60
1381;DHT22;684;48.342;10.096;2024-01-16T00:44:32;-0.30;10.70
1381;DHT22;684;48.342;10.096;2024-01-16T00:47:00;-0.30;10.70
1381;DHT22;684;48.342;10.096;2024-01-16T00:49:27;-0.40;10.70
1381;DHT22;684;48.342;10.096;2024-01-16T00:51:54;-0.40;10.80
1381;DHT22;684;48.342;10.096;2024-01-16T00:54:23;-0.40;10.80
1381;DHT22;684;48.342;10.096;2024-01-16T00:56:49;-0.40;10.80
1381;DHT22;684;48.342;10.096;2024-01-16T00:59:20;-0.50;10.80
1381;DHT22;684;48.342;10.096;2024-01-16T01:01:47;-0.60;10.90
1381;DHT22;684;48.342;10.096;2024-01-16T01:04:14;-0.60;10.90
1381;DHT22;684;48.342;10.096;2024-01-16T01:06:41;-0.60;10.90
1381;DHT22;684;48.342;10.096;2024-01-16T01:09:08;-0.70;11.00
1381;DHT22;684;48.342;10.096;2024-01-16T01:11:38;-0.70;11.00
1381;DHT22;684;48.342;10.096;2024-01-16T01:14:05;-0.70;11.10
1381;DHT22;684;48.342;10.096;2024-01-16T01:16:32;-0.70;11.10
1381;DHT22;684;48.342;10.096;2024-01-16T01:18:59;-0.70;11.10
1381;DHT22;684;48.342;10.096;2024-01-16T01:21:26;-0.70;11.20
1381;DHT22;684;48.342;10.096;2024-01-16T01:23:53;-0.80;11.10
1381;DHT22;684;48.342;10.096;2024-01-16T01:26:20;-0.80;11.20
1381;DHT22;684;48.342;10.096;2024-01-16T01:28:48;-0.80;11.20
1381;DHT22;684;48.342;10.096;2024-01-16T01:31:15;-0.90;11.30
1381;DHT22;684;48.342;10.096;2024-01-16T01:33:42;-0.90;11.30
1381;DHT22;684;48.342;10.096;2024-01-16T01:36:09;-0.90;11.40
1381;DHT22;684;48.342;10.096;2024-01-16T01:38:36;-0.90;11.40
1381;DHT22;684;48.342;10.096;2024-01-16T01:41:04;-0.90;11.90
1381;DHT22;684;48.342;10.096;2024-01-16T01:43:31;-0.90;11.40
1381;DHT22;684;48.342;10.096;2024-01-16T01:46:09;-0.90;11.30
1381;DHT22;684;48.342;10.096;2024-01-16T01:48:37;-0.90;11.40
1381;DHT22;684;48.342;10.096;2024-01-16T01:51:04;-0.90;11.40
1381;DHT22;684;48.342;10.096;2024-01-16T01:53:32;-1.00;11.40
1381;DHT22;684;48.342;10.096;2024-01-16T01:56:02;-1.00;11.50
1381;DHT22;684;48.342;10.096;2024-01-16T01:58:31;-1.00;11.50
1381;DHT22;684;48.342;10.096;2024-01-16T02:00:59;-1.00;11.50
1381;DHT22;684;48.342;10.096;2024-01-16T02:03:29;-1.00;11.50
1381;DHT22;684;48.342;10.096;2024-01-16T02:05:59;-1.00;11.50
1381;DHT22;684;48.342;10.096;2024-01-16T02:08:27;-1.00;11.60
1381;DHT22;684;48.342;10.096;2024-01-16T02:10:54;-1.10;11.60
1381;DHT22;684;48.342;10.096;2024-01-16T02:13:21;-1.20;11.60
1381;DHT22;684;48.342;10.096;2024-01-16T02:15:49;-1.20;11.60
1381;DHT22;684;48.342;10.096;2024-01-16T02:18:16;-1.20;11.60
1381;DHT22;684;48.342;10.096;2024-01-16T02:20:45;-1.30;11.70
1381;DHT22;684;48.342;10.096;2024-01-16T02:23:14;-1.30;11.80
1381;DHT22;684;48.342;10.096;2024-01-16T02:25:43;-1.30;11.80
1381;DHT22;684;48.342;10.096;2024-01-16T02:28:10;-1.30;11.80
1381;DHT22;684;48.342;10.096;2024-01-16T02:30:38;-1.40;11.80
1381;DHT22;684;48.342;10.096;2024-01-16T02:33:06;-1.40;11.80
1381;DHT22;684;48.342;10.096;2024-01-16T02:35:33;-1.50;11.90
1381;DHT22;684;48.342;10.096;2024-01-16T02:38:00;-1.50;12.00
1381;DHT22;684;48.342;10.096;2024-01-16T02:40:27;-1.60;11.90
1381;DHT22;684;48.342;10.096;2024-01-16T02:42:55;-1.60;12.00
1381;DHT22;684;48.342;10.096;2024-01-16T02:45:22;-1.60;12.10
1381;DHT22;684;48.342;10.096;2024-01-16T02:47:49;-1.60;12.20
1381;DHT22;684;48.342;10.096;2024-01-16T02:50:16;-1.70;12.30
1381;DHT22;684;48.342;10.096;2024-01-16T02:52:43;-1.60;12.30
1381;DHT22;684;48.342;10.096;2024-01-16T02:55:10;-1.70;12.20
1381;DHT22;684;48.342;10.096;2024-01-16T02:57:36;-1.70;12.20
1381;DHT22;684;48.342;10.096;2024-01-16T03:00:06;-1.60;12.10
1381;DHT22;684;48.342;10.096;2024-01-16T03:02:33;-1.70;12.10
1381;DHT22;684;48.342;10.096;2024-01-16T03:05:02;-1.60;12.00
1381;DHT22;684;48.342;10.096;2024-01-16T03:07:30;-1.70;12.10
1381;DHT22;684;48.342;10.096;2024-01-16T03:09:57;-1.70;12.10
1381;DHT22;684;48.342;10.096;2024-01-16T03:12:24;-1.70;12.10
1381;DHT22;684;48.342;10.096;2024-01-16T03:14:51;-1.70;12.10
1381;DHT22;684;48.342;10.096;2024-01-16T03:17:20;-1.80;11.90
1381;DHT22;684;48.342;10.096;2024-01-16T03:19:47;-1.80;11.90
1381;DHT22;684;48.342;10.096;2024-01-16T03:22:13;-1.80;11.90
1381;DHT22;684;48.342;10.096;2024-01-16T03:24:40;-1.80;11.90
1381;DHT22;684;48.342;10.096;2024-01-16T03:27:07;-1.80;11.90
1381;DHT22;684;48.342;10.096;2024-01-16T03:29:34;-1.90;12.00
1381;DHT22;684;48.342;10.096;2024-01-16T03:32:01;-1.90;12.00
1381;DHT22;684;48.342;10.096;2024-01-16T03:34:30;-1.90;11.90
1381;DHT22;684;48.342;10.096;2024-01-16T03:36:57;-1.90;12.20
1381;DHT22;684;48.342;10.096;2024-01-16T03:39:23;-1.90;12.10
1381;DHT22;684;48.342;10.096;2024-01-16T03:41:50;-1.90;12.10
1381;DHT22;684;48.342;10.096;2024-01-16T03:44:17;-1.90;12.20
1381;DHT22;684;48.342;10.096;2024-01-16T03:46:44;-2.00;12.10
1381;DHT22;684;48.342;10.096;2024-01-16T03:49:11;-2.00;12.10
1381;DHT22;684;48.342;10.096;2024-01-16T03:51:39;-2.00;12.00
1381;DHT22;684;48.342;10.096;2024-01-16T03:54:08;-2.00;12.20
1381;DHT22;684;48.342;10.096;2024-01-16T03:56:35;-2.00;12.00
1381;DHT22;684;48.342;10.096;2024-01-16T03:59:02;-2.00;11.90
1381;DHT22;684;48.342;10.096;2024-01-16T04:01:32;-2.00;12.00
1381;DHT22;684;48.342;10.096;2024-01-16T04:04:01;-2.10;12.10
1381;DHT22;684;48.342;10.096;2024-01-16T04:06:28;-2.10;12.00
1381;DHT22;684;48.342;10.096;2024-01-16T04:08:57;-2.10;11.90
1381;DHT22;684;48.342;10.096;2024-01-16T04:11:24;-2.10;11.90
1381;DHT22;684;48.342;10.096;2024-01-16T04:13:51;-2.10;11.90
1381;DHT22;684;48.342;10.096;2024-01-16T04:16:18;-2.10;12.00
1381;DHT22;684;48.342;10.096;2024-01-16T04:18:45;-2.10;11.90
1381;DHT22;684;48.342;10.096;2024-01-16T04:21:11;-2.10;11.90
1381;DHT22;684;48.342;10.096;2024-01-16T04:23:38;-2.10;11.90
1381;DHT22;684;48.342;10.096;2024-01-16T04:26:07;-2.20;11.90
1381;DHT22;684;48.342;10.096;2024-01-16T04:28:35;-2.20;11.90
1381;DHT22;684;48.342;10.096;2024-01-16T04:31:02;-2.20;11.90
1381;DHT22;684;48.342;10.096;2024-01-16T04:33:29;-2.10;12.00
1381;DHT22;684;48.342;10.096;2024-01-16T04:35:56;-2.20;11.90
1381;DHT22;684;48.342;10.096;2024-01-16T04:38:23;-2.20;12.50
1381;DHT22;684;48.342;10.096;2024-01-16T04:40:50;-2.20;12.00
1381;DHT22;684;48.342;10.096;2024-01-16T04:43:18;-2.20;12.00
1381;DHT22;684;48.342;10.096;2024-01-16T04:45:45;-2.20;12.00
1381;DHT22;684;48.342;10.096;2024-01-16T04:48:12;-2.20;12.00
1381;DHT22;684;48.342;10.096;2024-01-16T04:50:38;-2.20;12.00
1381;DHT22;684;48.342;10.096;2024-01-16T04:53:05;-2.20;11.90
1381;DHT22;684;48.342;10.096;2024-01-16T04:55:32;-2.20;11.90
1381;DHT22;684;48.342;10.096;2024-01-16T04:57:59;-2.20;12.00
1381;DHT22;684;48.342;10.096;2024-01-16T05:00:27;-2.20;11.90
1381;DHT22;684;48.342;10.096;2024-01-16T05:02:54;-2.30;11.90
1381;DHT22;684;48.342;10.096;2024-01-16T05:05:21;-2.30;12.00
1381;DHT22;684;48.342;10.096;2024-01-16T05:07:48;-2.30;12.00
1381;DHT22;684;48.342;10.096;2024-01-16T05:10:15;-2.30;12.60
1381;DHT22;684;48.342;10.096;2024-01-16T05:12:42;-2.30;12.10
1381;DHT22;684;48.342;10.096;2024-01-16T05:15:09;-2.30;12.10
1381;DHT22;684;48.342;10.096;2024-01-16T05:17:38;-2.30;12.10
1381;DHT22;684;48.342;10.096;2024-01-16T05:20:06;-2.30;12.10
1381;DHT22;684;48.342;10.096;2024-01-16T05:22:33;-2.20;12.10
1381;DHT22;684;48.342;10.096;2024-01-16T05:25:00;-2.20;12.00
1381;DHT22;684;48.342;10.096;2024-01-16T05:27:27;-2.20;12.00
1381;DHT22;684;48.342;10.096;2024-01-16T05:29:54;-2.20;12.00
1381;DHT22;684;48.342;10.096;2024-01-16T05:32:21;-2.20;12.00
1381;DHT22;684;48.342;10.096;2024-01-16T05:34:49;-2.20;11.90
1381;DHT22;684;48.342;10.096;2024-01-16T05:37:16;-2.30;12.00
1381;DHT22;684;48.342;10.096;2024-01-16T05:39:42;-2.30;12.00
1381;DHT22;684;48.342;10.096;2024-01-16T05:42:10;-2.30;12.10
1381;DHT22;684;48.342;10.096;2024-01-16T05:44:37;-2.30;12.00
1381;DHT22;684;48.342;10.096;2024-01-16T05:47:04;-2.30;12.10
1381;DHT22;684;48.342;10.096;2024-01-16T05:49:31;-2.20;12.10
1381;DHT22;684;48.342;10.096;2024-01-16T05:51:59;-2.30;12.10
1381;DHT22;684;48.342;10.096;2024-01-16T05:54:27;-2.30;12.10
1381;DHT22;684;48.342;10.096;2024-01-16T05:56:54;-2.30;12.10
1381;DHT22;684;48.342;10.096;2024-01-16T05:59:21;-2.40;12.10
1381;DHT22;684;48.342;10.096;2024-01-16T06:01:48;-2.40;12.10
1381;DHT22;684;48.342;10.096;2024-01-16T06:04:15;-2.30;12.10
1381;DHT22;684;48.342;10.096;2024-01-16T06:06:42;-2.30;12.10
1381;DHT22;684;48.342;10.096;2024-01-16T06:09:13;-2.30;12.10
1381;DHT22;684;48.342;10.096;2024-01-16T06:11:41;-2.30;12.10
1381;DHT22;684;48.342;10.096;2024-01-16T06:14:08;-2.30;12.10
1381;DHT22;684;48.342;10.096;2024-01-16T06:16:35;-2.30;12.10
1381;DHT22;684;48.342;10.096;2024-01-16T06:19:02;-2.20;12.10
1381;DHT22;684;48.342;10.096;2024-01-16T06:21:30;-2.20;12.00
1381;DHT22;684;48.342;10.096;2024-01-16T06:23:57;-2.20;12.00
1381;DHT22;684;48.342;10.096;2024-01-16T06:26:25;-2.20;11.90
1381;DHT22;684;48.342;10.096;2024-01-16T06:28:52;-2.20;11.90
1381;DHT22;684;48.342;10.096;2024-01-16T06:31:19;-2.20;11.90
1381;DHT22;684;48.342;10.096;2024-01-16T06:33:45;-2.20;11.90
1381;DHT22;684;48.342;10.096;2024-01-16T06:36:12;-2.20;11.80
1381;DHT22;684;48.342;10.096;2024-01-16T06:38:39;-2.20;11.80
1381;DHT22;684;48.342;10.096;2024-01-16T06:41:06;-2.20;11.90
1381;DHT22;684;48.342;10.096;2024-01-16T06:43:35;-2.30;11.90
1381;DHT22;684;48.342;10.096;2024-01-16T06:46:02;-2.20;11.90
1381;DHT22;684;48.342;10.096;2024-01-16T06:48:29;-2.20;11.90
1381;DHT22;684;48.342;10.096;2024-01-16T06:50:56;-2.20;12.00
1381;DHT22;684;48.342;10.096;2024-01-16T06:53:23;-2.20;12.00
1381;DHT22;684;48.342;10.096;2024-01-16T06:55:51;-2.20;11.90
1381;DHT22;684;48.342;10.096;2024-01-16T06:58:17;-2.10;12.10
1381;DHT22;684;48.342;10.096;2024-01-16T07:00:46;-2.10;11.90
1381;DHT22;684;48.342;10.096;2024-01-16T07:03:13;-2.10;11.90
1381;DHT22;684;48.342;10.096;2024-01-16T07:05:40;-2.10;12.00
1381;DHT22;684;48.342;10.096;2024-01-16T07:08:08;-2.10;12.00
1381;DHT22;684;48.342;10.096;2024-01-16T07:10:35;-2.10;12.00
1381;DHT22;684;48.342;10.096;2024-01-16T07:13:02;-2.10;12.00
1381;DHT22;684;48.342;10.096;2024-01-16T07:15:29;-2.00;11.90
1381;DHT22;684;48.342;10.096;2024-01-16T07:17:57;-2.00;11.90
1381;DHT22;684;48.342;10.096;2024-01-16T07:20:24;-2.00;11.90
1381;DHT22;684;48.342;10.096;2024-01-16T07:22:51;-1.90;12.00
1381;DHT22;684;48.342;10.096;2024-01-16T07:25:18;-1.90;12.50
1381;DHT22;684;48.342;10.096;2024-01-16T07:27:45;-1.90;12.00
1381;DHT22;684;48.342;10.096;2024-01-16T07:30:15;-1.90;12.00
1381;DHT22;684;48.342;10.096;2024-01-16T07:32:42;-1.80;12.00
1381;DHT22;684;48.342;10.096;2024-01-16T07:35:10;-1.80;12.00
1381;DHT22;684;48.342;10.096;2024-01-16T07:37:37;-1.80;12.00
1381;DHT22;684;48.342;10.096;2024-01-16T07:40:04;-1.80;12.10
1381;DHT22;684;48.342;10.096;2024-01-16T07:42:32;-1.80;12.00
1381;DHT22;684;48.342;10.096;2024-01-16T07:45:00;-1.70;12.10
1381;DHT22;684;48.342;10.096;2024-01-16T07:47:30;-1.70;12.10
1381;DHT22;684;48.342;10.096;2024-01-16T07:49:56;-1.70;12.00
1381;DHT22;684;48.342;10.096;2024-01-16T07:52:25;-1.60;12.00
1381;DHT22;684;48.342;10.096;2024-01-16T07:54:52;-1.60;12.00
1381;DHT22;684;48.342;10.096;2024-01-16T07:57:18;-1.50;12.00
1381;DHT22;684;48.342;10.096;2024-01-16T07:59:46;-1.50;12.00
1381;DHT22;684;48.342;10.096;2024-01-16T08:02:13;-1.50;12.00
1381;DHT22;684;48.342;10.096;2024-01-16T08:04:40;-1.40;11.90
1381;DHT22;684;48.342;10.096;2024-01-16T08:07:07;-1.40;11.80
1381;DHT22;684;48.342;10.096;2024-01-16T08:09:35;-1.40;11.70
1381;DHT22;684;48.342;10.096;2024-01-16T08:12:02;-1.30;11.60
1381;DHT22;684;48.342;10.096;2024-01-16T08:14:29;-1.20;11.60
1381;DHT22;684;48.342;10.096;2024-01-16T08:16:56;-1.20;11.50
1381;DHT22;684;48.342;10.096;2024-01-16T08:19:23;-1.20;11.40
1381;DHT22;684;48.342;10.096;2024-01-16T08:21:49;-1.10;11.30
1381;DHT22;684;48.342;10.096;2024-01-16T08:24:17;-1.00;11.20
1381;DHT22;684;48.342;10.096;2024-01-16T08:26:45;-1.00;11.10
1381;DHT22;684;48.342;10.096;2024-01-16T08:29:12;-0.90;11.10
1381;DHT22;684;48.342;10.096;2024-01-16T08:31:38;-0.80;10.90
1381;DHT22;684;48.342;10.096;2024-01-16T08:34:05;-0.80;10.80
1381;DHT22;684;48.342;10.096;2024-01-16T08:36:32;-0.70;10.80
1381;DHT22;684;48.342;10.096;2024-01-16T08:38:59;-0.60;10.60
1381;DHT22;684;48.342;10.096;2024-01-16T08:41:26;-0.50;10.50
1381;DHT22;684;48.342;10.096;2024-01-16T08:43:54;-0.50;10.30
1381;DHT22;684;48.342;10.096;2024-01-16T08:46:21;-0.40;10.20
1381;DHT22;684;48.342;10.096;2024-01-16T08:48:48;-0.30;10.10
1381;DHT22;684;48.342;10.096;2024-01-16T08:51:15;-0.30;9.80
1381;DHT22;684;48.342;10.096;2024-01-16T08:53:42;-0.20;9.60
1381;DHT22;684;48.342;10.096;2024-01-16T08:56:09;-0.20;9.50
1381;DHT22;684;48.342;10.096;2024-01-16T08:58:38;-0.10;9.50
1381;DHT22;684;48.342;10.096;2024-01-16T09:01:07;0.00;9.40
1381;DHT22;684;48.342;10.096;2024-01-16T09:03:36;0.00;9.20
1381;DHT22;684;48.342;10.096;2024-01-16T09:06:03;0.10;9.10
1381;DHT22;684;48.342;10.096;2024-01-16T09:08:30;0.30;9.10
1381;DHT22;684;48.342;10.096;2024-01-16T09:10:57;0.30;8.90
1381;DHT22;684;48.342;10.096;2024-01-16T09:13:24;0.40;8.70
1381;DHT22;684;48.342;10.096;2024-01-16T09:15:51;0.50;8.60
1381;DHT22;684;48.342;10.096;2024-01-16T09:18:19;0.60;8.40
1381;DHT22;684;48.342;10.096;2024-01-16T09:20:46;0.70;8.40
1381;DHT22;684;48.342;10.096;2024-01-16T09:23:14;0.70;8.10
1381;DHT22;684;48.342;10.096;2024-01-16T09:25:40;0.70;7.90
1381;DHT22;684;48.342;10.096;2024-01-16T09:28:07;0.70;7.80
1381;DHT22;684;48.342;10.096;2024-01-16T09:30:34;0.80;7.80
1381;DHT22;684;48.342;10.096;2024-01-16T09:33:01;0.90;7.70
1381;DHT22;684;48.342;10.096;2024-01-16T09:35:31;0.90;7.40
1381;DHT22;684;48.342;10.096;2024-01-16T09:37:58;1.00;7.40
1381;DHT22;684;48.342;10.096;2024-01-16T09:40:25;1.10;7.40
1381;DHT22;684;48.342;10.096;2024-01-16T09:42:52;1.40;7.30
1381;DHT22;684;48.342;10.096;2024-01-16T09:45:20;1.60;6.70
1381;DHT22;684;48.342;10.096;2024-01-16T09:47:50;1.70;6.40
1381;DHT22;684;48.342;10.096;2024-01-16T09:50:17;1.90;6.40
1381;DHT22;684;48.342;10.096;2024-01-16T09:52:46;2.10;6.30
1381;DHT22;684;48.342;10.096;2024-01-16T09:55:14;2.30;6.00
1381;DHT22;684;48.342;10.096;2024-01-16T09:57:41;2.40;5.50
1381;DHT22;684;48.342;10.096;2024-01-16T10:00:12;2.40;5.10
1381;DHT22;684;48.342;10.096;2024-01-16T10:02:39;2.50;4.90
1381;DHT22;684;48.342;10.096;2024-01-16T10:05:07;2.60;4.60
1381;DHT22;684;48.342;10.096;2024-01-16T10:07:36;2.70;4.20
1381;DHT22;684;48.342;10.096;2024-01-16T10:10:06;2.90;4.10
1381;DHT22;684;48.342;10.096;2024-01-16T10:12:33;3.10;3.60
1381;DHT22;684;48.342;10.096;2024-01-16T10:15:00;3.20;3.10
1381;DHT22;684;48.342;10.096;2024-01-16T10:17:39;3.40;2.60
1381;DHT22;684;48.342;10.096;2024-01-16T10:20:07;3.50;2.40
1381;DHT22;684;48.342;10.096;2024-01-16T10:22:39;3.70;2.30
1381;DHT22;684;48.342;10.096;2024-01-16T10:25:09;3.70;1.80
1381;DHT22;684;48.342;10.096;2024-01-16T10:27:38;3.80;1.30
1381;DHT22;684;48.342;10.096;2024-01-16T10:30:06;4.00;1.30
1381;DHT22;684;48.342;10.096;2024-01-16T10:32:35;4.10;1.40
1381;DHT22;684;48.342;10.096;2024-01-16T10:35:06;4.20;1.50
1381;DHT22;684;48.342;10.096;2024-01-16T10:37:47;4.30;1.10
1381;DHT22;684;48.342;10.096;2024-01-16T10:40:17;4.40;1.00
1381;DHT22;684;48.342;10.096;2024-01-16T10:42:45;4.50;1.00
1381;DHT22;684;48.342;10.096;2024-01-16T10:45:17;4.50;1.00
1381;DHT22;684;48.342;10.096;2024-01-16T10:47:46;4.60;1.00
1381;DHT22;684;48.342;10.096;2024-01-16T10:50:13;4.70;1.00
1381;DHT22;684;48.342;10.096;2024-01-16T10:52:47;4.80;1.00
1381;DHT22;684;48.342;10.096;2024-01-16T10:55:20;4.80;1.00
1381;DHT22;684;48.342;10.096;2024-01-16T10:57:48;4.90;1.00
1381;DHT22;684;48.342;10.096;2024-01-16T11:00:18;5.00;1.00
1381;DHT22;684;48.342;10.096;2024-01-16T11:02:50;5.10;1.00
1381;DHT22;684;48.342;10.096;2024-01-16T11:05:18;5.30;1.00
1381;DHT22;684;48.342;10.096;2024-01-16T11:07:47;5.40;1.00
1381;DHT22;684;48.342;10.096;2024-01-16T11:10:14;5.50;1.00
1381;DHT22;684;48.342;10.096;2024-01-16T11:12:43;5.90;1.00
1381;DHT22;684;48.342;10.096;2024-01-16T11:15:12;6.10;1.00
1381;DHT22;684;48.342;10.096;2024-01-16T11:17:40;6.30;1.00
1381;DHT22;684;48.342;10.096;2024-01-16T11:20:11;6.40;1.00
1381;DHT22;684;48.342;10.096;2024-01-16T11:22:41;6.30;1.00
1381;DHT22;684;48.342;10.096;2024-01-16T11:25:09;6.30;1.00
1381;DHT22;684;48.342;10.096;2024-01-16T11:27:36;6.30;1.00
1381;DHT22;684;48.342;10.096;2024-01-16T11:30:07;6.30;1.00
1381;DHT22;684;48.342;10.096;2024-01-16T11:32:35;6.20;1.00
1381;DHT22;684;48.342;10.096;2024-01-16T11:35:03;6.20;1.00
1381;DHT22;684;48.342;10.096;2024-01-16T11:37:30;6.30;1.00
1381;DHT22;684;48.342;10.096;2024-01-16T11:40:24;6.70;1.00
1381;DHT22;684;48.342;10.096;2024-01-16T11:42:53;7.00;1.00
1381;DHT22;684;48.342;10.096;2024-01-16T11:45:51;7.00;1.00
1381;DHT22;684;48.342;10.096;2024-01-16T11:48:19;6.90;1.00
1381;DHT22;684;48.342;10.096;2024-01-16T11:50:46;6.70;1.00
1381;DHT22;684;48.342;10.096;2024-01-16T11:53:35;6.70;1.00
1381;DHT22;684;48.342;10.096;2024-01-16T11:56:22;7.70;1.00
1381;DHT22;684;48.342;10.096;2024-01-16T11:59:01;8.50;1.00
1381;DHT22;684;48.342;10.096;2024-01-16T12:01:36;9.00;1.00
1381;DHT22;684;48.342;10.096;2024-01-16T12:04:05;9.00;1.00
1381;DHT22;684;48.342;10.096;2024-01-16T12:06:33;8.90;1.00
1381;DHT22;684;48.342;10.096;2024-01-16T12:09:13;9.20;1.00
1381;DHT22;684;48.342;10.096;2024-01-16T12:11:40;9.60;1.00
1381;DHT22;684;48.342;10.096;2024-01-16T12:14:09;9.20;1.00
1381;DHT22;684;48.342;10.096;2024-01-16T12:16:37;8.90;1.00
1381;DHT22;684;48.342;10.096;2024-01-16T12:19:05;9.20;1.00
1381;DHT22;684;48.342;10.096;2024-01-16T12:21:34;9.30;1.00
1381;DHT22;684;48.342;10.096;2024-01-16T12:24:02;9.60;1.00
1381;DHT22;684;48.342;10.096;2024-01-16T12:26:29;10.20;1.00
1381;DHT22;684;48.342;10.096;2024-01-16T12:28:57;10.90;1.00
1381;DHT22;684;48.342;10.096;2024-01-16T12:31:24;11.30;1.00
1381;DHT22;684;48.342;10.096;2024-01-16T12:33:53;11.40;1.00
1381;DHT22;684;48.342;10.096;2024-01-16T12:36:19;11.50;1.00
1381;DHT22;684;48.342;10.096;2024-01-16T12:38:54;11.50;1.00
1381;DHT22;684;48.342;10.096;2024-01-16T12:41:22;11.40;1.00
1381;DHT22;684;48.342;10.096;2024-01-16T12:43:50;11.40;1.00
1381;DHT22;684;48.342;10.096;2024-01-16T12:46:17;11.20;1.00
1381;DHT22;684;48.342;10.096;2024-01-16T12:48:45;10.80;1.00
1381;DHT22;684;48.342;10.096;2024-01-16T12:51:21;10.70;1.00
1381;DHT22;684;48.342;10.096;2024-01-16T12:53:49;10.90;1.00
1381;DHT22;684;48.342;10.096;2024-01-16T12:56:18;10.90;1.00
1381;DHT22;684;48.342;10.096;2024-01-16T12:58:46;11.00;1.00
1381;DHT22;684;48.342;10.096;2024-01-16T13:01:23;11.10;1.00
1381;DHT22;684;48.342;10.096;2024-01-16T13:03:50;10.70;1.00
1381;DHT22;684;48.342;10.096;2024-01-16T13:06:18;10.20;1.00
1381;DHT22;684;48.342;10.096;2024-01-16T13:08:47;9.80;1.00
1381;DHT22;684;48.342;10.096;2024-01-16T13:11:14;9.50;1.00
1381;DHT22;684;48.342;10.096;2024-01-16T13:13:45;9.30;1.00
1381;DHT22;684;48.342;10.096;2024-01-16T13:16:12;9.00;1.00
1381;DHT22;684;48.342;10.096;2024-01-16T13:18:39;8.70;1.00
1381;DHT22;684;48.342;10.096;2024-01-16T13:21:06;8.30;1.00
1381;DHT22;684;48.342;10.096;2024-01-16T13:23:33;8.00;1.00
1381;DHT22;684;48.342;10.096;2024-01-16T13:26:02;7.80;1.00
1381;DHT22;684;48.342;10.096;2024-01-16T13:28:30;7.60;1.00
1381;DHT22;684;48.342;10.096;2024-01-16T13:30:57;7.40;1.00
1381;DHT22;684;48.342;10.096;2024-01-16T13:33:24;7.10;1.00
1381;DHT22;684;48.342;10.096;2024-01-16T13:35:53;6.90;1.00
1381;DHT22;684;48.342;10.096;2024-01-16T13:38:21;6.70;1.00
1381;DHT22;684;48.342;10.096;2024-01-16T13:40:48;6.50;1.00
1381;DHT22;684;48.342;10.096;2024-01-16T13:43:17;6.40;1.00
1381;DHT22;684;48.342;10.096;2024-01-16T13:45:44;6.30;1.00
1381;DHT22;684;48.342;10.096;2024-01-16T13:48:15;6.20;1.00
1381;DHT22;684;48.342;10.096;2024-01-16T13:50:42;6.00;1.00
1381;DHT22;684;48.342;10.096;2024-01-16T13:53:10;5.80;1.00
1381;DHT22;684;48.342;10.096;2024-01-16T13:55:38;5.60;1.00
1381;DHT22;684;48.342;10.096;2024-01-16T13:58:06;5.30;1.00
1381;DHT22;684;48.342;10.096;2024-01-16T14:00:34;5.10;1.00
1381;DHT22;684;48.342;10.096;2024-01-16T14:03:02;4.90;1.00
1381;DHT22;684;48.342;10.096;2024-01-16T14:05:31;4.70;1.00
1381;DHT22;684;48.342;10.096;2024-01-16T14:07:57;4.60;1.00
1381;DHT22;684;48.342;10.096;2024-01-16T14:10:24;4.60;1.00
1381;DHT22;684;48.342;10.096;2024-01-16T14:12:51;4.50;1.00
1381;DHT22;684;48.342;10.096;2024-01-16T14:15:20;4.40;1.00
1381;DHT22;684;48.342;10.096;2024-01-16T14:17:50;4.40;1.00
1381;DHT22;684;48.342;10.096;2024-01-16T14:20:18;4.30;1.00
1381;DHT22;684;48.342;10.096;2024-01-16T14:22:48;4.40;1.00
1381;DHT22;684;48.342;10.096;2024-01-16T14:25:15;4.30;1.00
1381;DHT22;684;48.342;10.096;2024-01-16T14:27:45;4.30;1.00
1381;DHT22;684;48.342;10.096;2024-01-16T14:30:13;4.20;1.00
1381;DHT22;684;48.342;10.096;2024-01-16T14:32:41;4.10;1.00
1381;DHT22;684;48.342;10.096;2024-01-16T14:35:11;4.10;1.00
1381;DHT22;684;48.342;10.096;2024-01-16T14:37:38;4.10;1.00
1381;DHT22;684;48.342;10.096;2024-01-16T14:40:07;4.00;1.00
1381;DHT22;684;48.342;10.096;2024-01-16T14:42:38;3.90;1.00
1381;DHT22;684;48.342;10.096;2024-01-16T14:45:06;3.90;1.00
1381;DHT22;684;48.342;10.096;2024-01-16T14:47:33;3.90;1.00
1381;DHT22;684;48.342;10.096;2024-01-16T14:50:00;3.90;1.00
1381;DHT22;684;48.342;10.096;2024-01-16T14:52:30;3.80;1.00
1381;DHT22;684;48.342;10.096;2024-01-16T14:54:58;3.70;1.00
1381;DHT22;684;48.342;10.096;2024-01-16T14:57:25;3.60;1.00
1381;DHT22;684;48.342;10.096;2024-01-16T14:59:52;3.50;1.00
1381;DHT22;684;48.342;10.096;2024-01-16T15:02:19;3.40;1.00
1381;DHT22;684;48.342;10.096;2024-01-16T15:04:46;3.30;1.00
1381;DHT22;684;48.342;10.096;2024-01-16T15:07:13;3.20;1.00
1381;DHT22;684;48.342;10.096;2024-01-16T15:09:42;3.10;1.10
1381;DHT22;684;48.342;10.096;2024-01-16T15:12:09;3.00;1.30
1381;DHT22;684;48.342;10.096;2024-01-16T15:14:36;3.00;1.50
1381;DHT22;684;48.342;10.096;2024-01-16T15:17:03;2.90;1.50
1381;DHT22;684;48.342;10.096;2024-01-16T15:19:30;2.80;1.70
1381;DHT22;684;48.342;10.096;2024-01-16T15:21:57;2.70;2.20
1381;DHT22;684;48.342;10.096;2024-01-16T15:24:24;2.70;2.90
1381;DHT22;684;48.342;10.096;2024-01-16T15:26:56;2.60;2.40
1381;DHT22;684;48.342;10.096;2024-01-16T15:29:23;2.60;2.50
1381;DHT22;684;48.342;10.096;2024-01-16T15:31:49;2.50;2.60
1381;DHT22;684;48.342;10.096;2024-01-16T15:34:17;2.50;2.70
1381;DHT22;684;48.342;10.096;2024-01-16T15:36:44;2.40;2.80
1381;DHT22;684;48.342;10.096;2024-01-16T15:39:12;2.40;2.90
1381;DHT22;684;48.342;10.096;2024-01-16T15:41:41;2.30;3.10
1381;DHT22;684;48.342;10.096;2024-01-16T15:44:09;2.20;3.20
1381;DHT22;684;48.342;10.096;2024-01-16T15:46:54;2.20;3.30
1381;DHT22;684;48.342;10.096;2024-01-16T15:49:21;2.10;3.50
1381;DHT22;684;48.342;10.096;2024-01-16T15:51:48;2.10;3.70
1381;DHT22;684;48.342;10.096;2024-01-16T15:54:16;2.10;3.70
1381;DHT22;684;48.342;10.096;2024-01-16T15:56:43;2.00;3.90
1381;DHT22;684;48.342;10.096;2024-01-16T15:59:11;1.90;4.00
1381;DHT22;684;48.342;10.096;2024-01-16T16:01:39;1.90;4.20
1381;DHT22;684;48.342;10.096;2024-01-16T16:04:06;1.80;4.30
1381;DHT22;684;48.342;10.096;2024-01-16T16:06:34;1.80;4.40
1381;DHT22;684;48.342;10.096;2024-01-16T16:09:01;1.80;4.50
1381;DHT22;684;48.342;10.096;2024-01-16T16:11:28;1.80;4.60
1381;DHT22;684;48.342;10.096;2024-01-16T16:13:55;1.70;4.70
1381;DHT22;684;48.342;10.096;2024-01-16T16:16:23;1.70;4.90
1381;DHT22;684;48.342;10.096;2024-01-16T16:18:50;1.70;5.00
1381;DHT22;684;48.342;10.096;2024-01-16T16:21:17;1.60;4.90